createdAt,value
2023-01-28T00:01:12.573Z,100245.00
2023-01-28T00:04:15.457Z,100237.47
2023-01-28T00:07:19.382Z,100233.16
2023-01-28T00:10:22.267Z,100233.59
2023-01-28T00:13:25.101Z,100236.22
2023-01-28T00:16:28.150Z,100240.31
2023-01-28T00:19:30.926Z,100236.41
2023-01-28T00:22:34.253Z,100240.81
2023-01-28T00:25:36.984Z,100246.63
2023-01-28T00:28:39.895Z,100234.69
2023-01-28T00:31:42.750Z,100234.78
2023-01-28T00:34:45.604Z,100240.81
2023-01-28T00:37:48.378Z,100251.63
2023-01-28T00:40:51.381Z,100252.94
2023-01-28T00:43:54.841Z,100252.13
2023-01-28T00:46:57.595Z,100257.34
2023-01-28T00:50:00.308Z,100253.56
2023-01-28T00:53:03.118Z,100257.53
2023-01-28T00:56:07.951Z,100263.16
2023-01-28T00:59:10.966Z,100257.22
2023-01-28T01:02:14.048Z,100262.84
2023-01-28T01:05:17.238Z,100265.50
2023-01-28T01:08:20.190Z,100262.63
2023-01-28T01:11:23.366Z,100258.06
2023-01-28T01:14:26.182Z,100253.88
2023-01-28T01:17:32.404Z,100260.03
2023-01-28T01:20:40.089Z,100266.97
2023-01-28T01:23:42.805Z,100255.66
2023-01-28T01:26:45.545Z,100257.53
2023-01-28T01:29:48.250Z,100271.13
2023-01-28T01:32:51.060Z,100265.09
2023-01-28T01:35:57.740Z,100257.97
2023-01-28T01:39:02.511Z,100268.41
2023-01-28T01:42:05.855Z,100267.59
2023-01-28T01:45:14.716Z,100267.50
2023-01-28T01:48:25.254Z,100274.84
2023-01-28T01:51:33.311Z,100265.72
2023-01-28T01:54:38.836Z,100250.25
2023-01-28T01:57:43.387Z,100271.84
2023-01-28T02:00:46.707Z,100279.63
2023-01-28T02:04:02.009Z,100278.19
2023-01-28T02:07:05.914Z,100279.25
2023-01-28T02:10:10.493Z,100286.06
2023-01-28T02:13:16.605Z,100280.25
2023-01-28T02:16:19.660Z,100287.38
2023-01-28T02:19:27.732Z,100287.28
2023-01-28T02:23:13.148Z,100286.47
2023-01-28T02:26:21.705Z,100272.91
2023-01-28T02:29:41.540Z,100287.38
2023-01-28T02:32:53.806Z,100285.72
2023-01-28T02:35:56.772Z,100289.22
2023-01-28T02:39:08.582Z,100290.66
2023-01-28T02:42:17.434Z,100285.53
2023-01-28T02:45:47.202Z,100286.47
2023-01-28T02:48:50.531Z,100287.28
2023-01-28T02:52:01.127Z,100287.91
2023-01-28T02:55:13.096Z,100283.69
2023-01-28T02:58:49.850Z,100290.03
2023-01-28T03:02:17.958Z,100287.78
2023-01-28T03:05:29.719Z,100288.09
2023-01-28T03:09:27.291Z,100287.56
2023-01-28T03:12:50.930Z,100283.91
2023-01-28T03:16:12.321Z,100291.56
2023-01-28T03:19:36.537Z,100293.03
2023-01-28T03:23:02.671Z,100299.66
2023-01-28T03:26:27.449Z,100298.84
2023-01-28T03:29:50.510Z,100297.22
2023-01-28T03:33:15.391Z,100299.97
2023-01-28T03:36:37.087Z,100293.94
2023-01-28T03:39:40.908Z,100296.38
2023-01-28T03:42:45.939Z,100299.75
2023-01-28T03:46:06.578Z,100299.31
2023-01-28T03:49:09.639Z,100295.97
2023-01-28T03:52:13.440Z,100300.47
2023-01-28T03:55:16.385Z,100296.19
2023-01-28T03:58:23.540Z,100288.41
2023-01-28T04:01:27.158Z,100295.34
2023-01-28T04:04:32.746Z,100294.56
2023-01-28T04:07:35.639Z,100302.31
2023-01-28T04:10:58.575Z,100291.59
2023-01-28T04:14:05.257Z,100299.06
2023-01-28T04:17:29.831Z,100301.81
2023-01-28T04:20:33.303Z,100303.53
2023-01-28T04:23:37.175Z,100306.19
2023-01-28T04:26:40.203Z,100305.66
2023-01-28T04:29:43.138Z,100306.81
2023-01-28T04:33:17.962Z,100314.88
2023-01-28T04:36:30.333Z,100314.16
2023-01-28T04:39:53.258Z,100321.09
2023-01-28T04:42:58.716Z,100329.28
2023-01-28T04:46:22.289Z,100330.50
2023-01-28T04:49:39.567Z,100335.72
2023-01-28T04:53:05.433Z,100332.03
2023-01-28T04:56:34.484Z,100341.09
2023-01-28T04:59:37.617Z,100334.97
2023-01-28T05:02:40.643Z,100337.44
2023-01-28T05:05:43.428Z,100340.72
2023-01-28T05:08:56.620Z,100347.84
2023-01-28T05:11:59.343Z,100351.75
2023-01-28T05:15:02.350Z,100334.81
2023-01-28T05:18:05.279Z,100359.50
2023-01-28T05:21:14.684Z,100353.28
2023-01-28T05:24:17.615Z,100358.41
2023-01-28T05:27:20.619Z,100350.63
2023-01-28T05:30:24.328Z,100363.91
2023-01-28T05:33:27.771Z,100370.34
2023-01-28T05:36:30.611Z,100365.13
2023-01-28T05:39:36.382Z,100366.34
2023-01-28T05:42:39.523Z,100363.69
2023-01-28T05:45:57.829Z,100356.66
2023-01-28T05:49:12.490Z,100370.63
2023-01-28T05:52:33.983Z,100368.41
2023-01-28T05:55:36.899Z,100371.34
2023-01-28T05:58:40.031Z,100374.53
2023-01-28T06:01:44.008Z,100375.66
2023-01-28T06:04:46.784Z,100382.59
2023-01-28T06:07:50.744Z,100381.03
2023-01-28T06:10:54.178Z,100390.34
2023-01-28T06:13:59.393Z,100387.06
2023-01-28T06:17:08.125Z,100396.19
2023-01-28T06:20:23.225Z,100404.53
2023-01-28T06:23:27.120Z,100400.16
2023-01-28T06:26:30.718Z,100407.09
2023-01-28T06:29:33.573Z,100396.88
2023-01-28T06:32:36.849Z,100410.56
2023-01-28T06:35:39.561Z,100424.88
2023-01-28T06:38:42.335Z,100418.84
2023-01-28T06:41:45.141Z,100436.63
2023-01-28T06:44:47.969Z,100427.44
2023-01-28T06:47:50.745Z,100441.75
2023-01-28T06:50:53.938Z,100446.09
2023-01-28T06:53:56.707Z,100439.28
2023-01-28T06:56:59.599Z,100454.50
2023-01-28T07:00:02.554Z,100446.44
2023-01-28T07:03:05.577Z,100455.44
2023-01-28T07:06:08.565Z,100459.22
2023-01-28T07:09:11.300Z,100460.72
2023-01-28T07:12:14.066Z,100456.94
2023-01-28T07:15:17.003Z,100462.25
2023-01-28T07:18:19.963Z,100468.09
2023-01-28T07:21:22.763Z,100461.13
2023-01-28T07:24:25.663Z,100477.00
2023-01-28T07:27:28.363Z,100463.09
2023-01-28T07:30:31.191Z,100471.19
2023-01-28T07:33:34.055Z,100484.53
2023-01-28T07:36:36.789Z,100470.25
2023-01-28T07:39:39.509Z,100474.44
2023-01-28T07:42:42.439Z,100493.16
2023-01-28T07:45:48.639Z,100486.50
2023-01-28T07:48:51.567Z,100498.88
2023-01-28T07:51:54.389Z,100499.47
2023-01-28T07:54:57.124Z,100496.63
2023-01-28T07:58:00.882Z,100497.75
2023-01-28T08:01:04.541Z,100497.41
2023-01-28T08:04:07.486Z,100497.84
2023-01-28T08:07:10.310Z,100497.66
2023-01-28T08:10:13.750Z,100505.63
2023-01-28T08:13:18.637Z,100503.44
2023-01-28T08:16:21.424Z,100508.56
2023-01-28T08:19:24.203Z,100505.31
2023-01-28T08:22:27.725Z,100508.06
2023-01-28T08:25:30.431Z,100485.25
2023-01-28T08:28:33.155Z,100497.63
2023-01-28T08:31:35.957Z,100502.44
2023-01-28T08:34:38.668Z,100497.91
2023-01-28T08:37:41.417Z,100505.88
2023-01-28T08:40:44.241Z,100497.53
2023-01-28T08:43:47.863Z,100513.63
2023-01-28T08:46:50.597Z,100523.16
2023-01-28T08:49:53.596Z,100502.97
2023-01-28T08:52:58.161Z,100517.47
2023-01-28T08:56:00.851Z,100521.53
2023-01-28T08:59:03.629Z,100517.13
2023-01-28T09:02:06.655Z,100519.44
2023-01-28T09:05:10.944Z,100521.19
2023-01-28T09:08:15.348Z,100489.13
2023-01-28T09:11:18.242Z,100522.84
2023-01-28T09:14:21.170Z,100526.16
2023-01-28T09:17:23.991Z,100518.09
2023-01-28T09:20:27.220Z,100527.28
2023-01-28T09:23:29.911Z,100532.47
2023-01-28T09:26:34.694Z,100528.38
2023-01-28T09:29:38.832Z,100526.97
2023-01-28T09:32:42.018Z,100539.97
2023-01-28T09:35:45.560Z,100538.28
2023-01-28T09:38:48.356Z,100541.84
2023-01-28T09:42:03.155Z,100536.78
2023-01-28T09:45:16.363Z,100540.97
2023-01-28T09:48:30.826Z,100542.63
2023-01-28T09:51:36.229Z,100544.13
2023-01-28T09:54:45.259Z,100546.09
2023-01-28T09:57:52.401Z,100540.09
2023-01-28T10:01:05.501Z,100540.81
2023-01-28T10:04:43.424Z,100545.38
2023-01-28T10:07:58.337Z,100544.41
2023-01-28T10:11:05.097Z,100541.47
2023-01-28T10:14:38.441Z,100547.38
2023-01-28T10:17:47.677Z,100534.34
2023-01-28T10:20:55.345Z,100539.78
2023-01-28T10:24:03.612Z,100534.50
2023-01-28T10:27:16.670Z,100530.53
2023-01-28T10:30:28.631Z,100535.22
2023-01-28T10:33:37.154Z,100544.88
2023-01-28T10:36:39.979Z,100539.69
2023-01-28T10:39:43.541Z,100542.91
2023-01-28T10:42:46.539Z,100542.75
2023-01-28T10:46:26.940Z,100544.94
2023-01-28T10:49:31.614Z,100547.47
2023-01-28T10:52:34.617Z,100540.13
2023-01-28T10:55:56.128Z,100536.31
2023-01-28T10:59:02.901Z,100533.16
2023-01-28T11:02:28.789Z,100537.44
2023-01-28T11:05:31.836Z,100528.63
2023-01-28T11:08:44.546Z,100536.59
2023-01-28T11:11:47.369Z,100534.13
2023-01-28T11:15:04.550Z,100540.88
2023-01-28T11:18:17.759Z,100530.28
2023-01-28T11:21:24.645Z,100534.94
2023-01-28T11:24:32.523Z,100533.00
2023-01-28T11:27:35.535Z,100539.66
2023-01-28T11:30:41.302Z,100524.13
2023-01-28T11:34:00.644Z,100522.66
2023-01-28T11:37:12.827Z,100528.34
2023-01-28T11:40:21.937Z,100540.53
2023-01-28T11:43:30.172Z,100531.03
2023-01-28T11:47:00.408Z,100533.19
2023-01-28T11:50:18.504Z,100526.34
2023-01-28T11:53:35.987Z,100527.50
2023-01-28T11:56:50.744Z,100526.53
2023-01-28T12:00:12.531Z,100531.22
2023-01-28T12:03:28.219Z,100522.84
2023-01-28T12:07:04.531Z,100531.44
2023-01-28T12:10:17.313Z,100524.94
2023-01-28T12:13:46.489Z,100540.59
2023-01-28T12:17:05.840Z,100517.34
2023-01-28T12:20:20.523Z,100533.88
2023-01-28T12:23:47.236Z,100534.16
2023-01-28T12:27:02.518Z,100527.56
2023-01-28T12:30:25.016Z,100523.31
2023-01-28T12:33:33.503Z,100517.16
2023-01-28T12:36:45.060Z,100522.94
2023-01-28T12:39:53.613Z,100525.81
2023-01-28T12:43:05.551Z,100524.28
2023-01-28T12:46:11.037Z,100524.47
2023-01-28T12:49:26.024Z,100523.44
2023-01-28T12:52:35.400Z,100533.16
2023-01-28T12:55:58.367Z,100526.94
2023-01-28T12:59:16.931Z,100528.28
2023-01-28T13:02:50.263Z,100535.19
2023-01-28T13:05:59.385Z,100537.66
2023-01-28T13:09:22.696Z,100547.38
2023-01-28T13:12:26.545Z,100546.50
2023-01-28T13:15:30.762Z,100550.31
2023-01-28T13:18:45.707Z,100554.25
2023-01-28T13:21:50.128Z,100550.66
2023-01-28T13:24:53.052Z,100555.03
2023-01-28T13:28:05.103Z,100562.19
2023-01-28T13:31:17.430Z,100556.59
2023-01-28T13:34:40.790Z,100559.97
2023-01-28T13:37:47.423Z,100568.09
2023-01-28T13:40:56.977Z,100576.69
2023-01-28T13:44:01.366Z,100562.78
2023-01-28T13:47:07.544Z,100575.31
2023-01-28T13:50:16.813Z,100589.97
2023-01-28T13:53:30.806Z,100578.25
2023-01-28T13:56:57.205Z,100575.66
2023-01-28T14:00:21.244Z,100584.06
2023-01-28T14:03:43.005Z,100585.00
2023-01-28T14:06:57.565Z,100583.81
2023-01-28T14:10:08.754Z,100594.03
2023-01-28T14:13:32.963Z,100588.38
2023-01-28T14:16:52.272Z,100590.19
2023-01-28T14:19:57.667Z,100590.81
2023-01-28T14:23:03.323Z,100589.19
2023-01-28T14:26:24.200Z,100601.38
2023-01-28T14:29:29.498Z,100600.56
2023-01-28T14:32:34.372Z,100593.44
2023-01-28T14:35:40.355Z,100601.31
2023-01-28T14:38:45.386Z,100603.22
2023-01-28T14:41:51.170Z,100604.38
2023-01-28T14:45:23.290Z,100609.59
2023-01-28T14:49:00.034Z,100611.56
2023-01-28T14:52:11.655Z,100619.09
2023-01-28T14:55:17.293Z,100626.56
2023-01-28T14:58:32.955Z,100629.47
2023-01-28T15:01:35.700Z,100639.38
2023-01-28T15:04:38.616Z,100641.31
2023-01-28T15:07:45.555Z,100635.50
2023-01-28T15:10:52.163Z,100640.13
2023-01-28T15:13:59.038Z,100644.31
2023-01-28T15:17:02.816Z,100646.75
2023-01-28T15:20:08.316Z,100648.91
2023-01-28T15:26:29.309Z,100656.16
2023-01-28T15:29:33.639Z,100655.03
2023-01-28T15:32:36.581Z,100656.88
2023-01-28T15:35:47.454Z,100661.28
2023-01-28T15:38:50.199Z,100668.75
2023-01-28T15:41:58.945Z,100672.09
2023-01-28T15:45:02.210Z,100675.19
2023-01-28T15:48:07.087Z,100681.94
2023-01-28T15:51:20.421Z,100677.53
2023-01-28T15:54:24.964Z,100683.88
2023-01-28T15:57:34.803Z,100684.00
2023-01-28T16:00:37.783Z,100681.94
2023-01-28T16:03:43.736Z,100698.00
2023-01-28T16:06:47.053Z,100698.41
2023-01-28T16:09:54.972Z,100702.19
2023-01-28T16:13:22.332Z,100702.63
2023-01-28T16:16:34.421Z,100710.88
2023-01-28T16:19:46.182Z,100714.38
2023-01-28T16:22:49.280Z,100713.44
2023-01-28T16:26:02.383Z,100711.81
2023-01-28T16:29:17.090Z,100715.19
2023-01-28T16:32:30.893Z,100720.09
2023-01-28T16:35:56.519Z,100719.81
2023-01-28T16:38:56.433Z,100721.44
2023-01-28T16:41:59.973Z,100719.88
2023-01-28T16:45:03.569Z,100729.13
2023-01-28T16:48:06.657Z,100721.72
2023-01-28T16:51:17.365Z,100729.19
2023-01-28T16:54:20.131Z,100733.41
2023-01-28T16:57:23.037Z,100739.44
2023-01-28T17:00:27.630Z,100741.91
2023-01-28T17:03:30.593Z,100720.13
2023-01-28T17:06:33.565Z,100740.63
2023-01-28T17:09:36.326Z,100738.00
2023-01-28T17:12:39.241Z,100741.47
2023-01-28T17:15:42.839Z,100745.75
2023-01-28T17:18:47.928Z,100763.38
2023-01-28T17:21:51.440Z,100760.72
2023-01-28T17:24:54.473Z,100761.94
2023-01-28T17:27:57.170Z,100761.94
2023-01-28T17:31:01.352Z,100758.34
2023-01-28T17:34:07.100Z,100772.69
2023-01-28T17:37:09.988Z,100770.13
2023-01-28T17:40:13.497Z,100779.84
2023-01-28T17:43:17.896Z,100767.34
2023-01-28T17:46:22.048Z,100776.53
2023-01-28T17:49:25.164Z,100773.25
2023-01-28T17:52:28.180Z,100780.84
2023-01-28T17:55:31.044Z,100775.59
2023-01-28T17:58:34.005Z,100772.25
2023-01-28T18:01:37.520Z,100786.25
2023-01-28T18:04:41.582Z,100787.88
2023-01-28T18:07:45.684Z,100786.16
2023-01-28T18:10:48.944Z,100798.38
2023-01-28T18:13:51.683Z,100804.22
2023-01-28T18:16:54.440Z,100805.69
2023-01-28T18:19:57.578Z,100801.88
2023-01-28T18:23:01.575Z,100802.97
2023-01-28T18:26:07.362Z,100801.88
2023-01-28T18:29:10.138Z,100806.19
2023-01-28T18:32:13.174Z,100805.69
2023-01-28T18:35:16.313Z,100812.94
2023-01-28T18:38:19.217Z,100817.94
2023-01-28T18:41:21.998Z,100818.75
2023-01-28T18:44:27.001Z,100819.84
2023-01-28T18:47:29.785Z,100825.59
2023-01-28T18:50:32.994Z,100830.63
2023-01-28T18:53:36.035Z,100826.44
2023-01-28T18:56:39.625Z,100834.00
2023-01-28T18:59:42.612Z,100835.53
2023-01-28T19:02:45.838Z,100834.09
2023-01-28T19:05:49.009Z,100839.84
2023-01-28T19:08:54.051Z,100846.19
2023-01-28T19:11:57.032Z,100845.25
2023-01-28T19:14:59.887Z,100844.75
2023-01-28T19:18:03.536Z,100848.72
2023-01-28T19:21:07.293Z,100852.19
2023-01-28T19:24:12.464Z,100849.28
2023-01-28T19:27:15.632Z,100851.31
2023-01-28T19:30:18.748Z,100849.84
2023-01-28T19:33:21.992Z,100855.31
2023-01-28T19:36:27.134Z,100857.75
2023-01-28T19:39:31.775Z,100869.22
2023-01-28T19:42:34.831Z,100864.19
2023-01-28T19:45:37.664Z,100874.22
2023-01-28T19:48:40.486Z,100876.41
2023-01-28T19:51:45.102Z,100879.03
2023-01-28T19:54:48.703Z,100872.66
2023-01-28T19:57:51.432Z,100880.16
2023-01-28T20:00:54.526Z,100880.63
2023-01-28T20:03:59.431Z,100868.84
2023-01-28T20:07:02.596Z,100885.34
2023-01-28T20:10:05.953Z,100880.72
2023-01-28T20:13:08.972Z,100879.44
2023-01-28T20:16:19.383Z,100878.31
2023-01-28T20:19:22.325Z,100885.53
2023-01-28T20:22:25.592Z,100882.34
2023-01-28T20:25:28.331Z,100888.28
2023-01-28T20:28:31.332Z,100889.09
2023-01-28T20:31:35.534Z,100884.25
2023-01-28T20:34:38.746Z,100889.03
2023-01-28T20:37:42.570Z,100896.03
2023-01-28T20:40:47.508Z,100895.84
2023-01-28T20:43:51.730Z,100899.97
2023-01-28T20:46:54.822Z,100896.56
2023-01-28T20:49:57.692Z,100897.94
2023-01-28T20:53:00.796Z,100902.72
2023-01-28T20:56:04.652Z,100908.09
2023-01-28T20:59:07.798Z,100910.53
2023-01-28T21:02:11.390Z,100912.28
2023-01-28T21:05:14.514Z,100909.09
2023-01-28T21:08:18.805Z,100909.94
2023-01-28T21:11:23.086Z,100908.28
2023-01-28T21:14:25.842Z,100910.38
2023-01-28T21:17:31.817Z,100912.19
2023-01-28T21:20:35.118Z,100913.94
2023-01-28T21:23:38.039Z,100917.59
2023-01-28T21:26:40.989Z,100917.50
2023-01-28T21:29:43.886Z,100930.28
2023-01-28T21:32:46.726Z,100930.53
2023-01-28T21:35:49.471Z,100915.59
2023-01-28T21:38:53.825Z,100934.19
2023-01-28T21:41:56.701Z,100928.63
2023-01-28T21:44:59.407Z,100933.00
2023-01-28T21:48:02.225Z,100922.06
2023-01-28T21:51:26.099Z,100926.25
2023-01-28T21:54:28.947Z,100924.81
2023-01-28T21:57:31.664Z,100933.66
2023-01-28T22:00:34.380Z,100928.63
2023-01-28T22:03:37.170Z,100936.47
2023-01-28T22:06:42.285Z,100940.03
2023-01-28T22:09:46.956Z,100943.50
2023-01-28T22:12:49.984Z,100935.56
2023-01-28T22:15:52.728Z,100948.53
2023-01-28T22:18:55.703Z,100948.81
2023-01-28T22:21:58.516Z,100957.72
2023-01-28T22:25:01.907Z,100949.44
2023-01-28T22:28:04.840Z,100947.44
2023-01-28T22:31:10.159Z,100929.28
2023-01-28T22:34:13.400Z,100943.50
2023-01-28T22:37:16.234Z,100930.66
2023-01-28T22:40:19.287Z,100949.72
2023-01-28T22:43:22.768Z,100946.78
2023-01-28T22:46:25.645Z,100954.00
2023-01-28T22:49:28.362Z,100949.72
2023-01-28T22:52:31.238Z,100951.91
2023-01-28T22:55:33.982Z,100953.00
2023-01-28T22:58:37.367Z,100953.81
2023-01-28T23:01:40.465Z,100957.72
2023-01-28T23:04:45.756Z,100944.06
2023-01-28T23:07:48.439Z,100945.88
2023-01-28T23:10:51.782Z,100950.06
2023-01-28T23:14:21.140Z,100954.91
2023-01-28T23:17:42.756Z,100951.91
2023-01-28T23:21:04.399Z,100957.84
2023-01-28T23:24:19.764Z,100954.66
2023-01-28T23:27:23.227Z,100954.00
2023-01-28T23:30:26.175Z,100944.97
2023-01-28T23:33:28.935Z,100956.09
2023-01-28T23:36:31.649Z,100958.56
2023-01-28T23:39:34.806Z,100961.22
2023-01-28T23:42:37.700Z,100954.44
2023-01-28T23:45:40.535Z,100959.75
2023-01-28T23:48:43.855Z,100964.69
2023-01-28T23:51:46.772Z,100969.72
2023-01-28T23:54:49.518Z,100971.72
2023-01-28T23:57:52.262Z,100968.25
